Walhalla, SC (29691)

02:49 PM EDT die 02o September, anno 2014 (GMT -0400)
West Walhalla (Near Library) KelBren | Change Station
CLOSE
Current Station
Personal Weather Stations
Location: Walhalla, SC
Elevation: 1060 ft
Nearby Weather Stations
Active Advisory: Special Statement

Elev 1060 ft 34.76 °N, 83.07 °W | Updated 4 minutes ago

Partialiter Nubila
Partialiter Nubila
89.8 °F
Feels Like 96 °F
N
2.2
Ventus Variabilis Ventus from Inter Austrum et Zephyrum

Hodie
High -- | Low -- °F
--% Chance of Precip.
Yesterday
High -- | Low -- °F
Precip. -- in
7:05 AM 7:57 PM
First Quarter, 54% visible
Pressio 30.05 in
Visibilitas 10.0 milia passuum
Clouds Nubes Dispersae 4900 ft
Nubes Dispersae 6000 ft
Index Caloris 96 °F
Frigus in quo Ros apparet 71 °F
Umor 54%
Rainfall 0.00 in
Snow Depth Not available.
UV 8 out of 12
Pollen 9.90 out of 12
Ozone Good
PM2.5 Good
Flu Activity Not available.
METAR KCEU 021754Z AUTO 29008KT 10SM SCT049 SCT060 33/19 A3009 RMK AO2 SLP175 T03330194 10344 20233 58013

More Conditions Fewer Conditions

Pressio 30.05 in
Visibilitas 10.0 milia passuum
Clouds Nubes Dispersae 4900 ft
Nubes Dispersae 6000 ft
Index Caloris 96 °F
Frigus in quo Ros apparet 71 °F
Umor 54%
Rainfall 0.00 in
Snow Depth Not available.
UV 8 out of 12
Pollen 9.90 out of 12
Ozone Good
PM2.5 Good
Flu Activity Not available.
METAR KCEU 021754Z AUTO 29008KT 10SM SCT049 SCT060 33/19 A3009 RMK AO2 SLP175 T03330194 10344 20233 58013

More Conditions Fewer Conditions

10-Day Weather Forecast

Almanac

Astronomy

Sep. 02, 2014 Rise Set
Actual Time 7:05 AM EDT 7:57 PM EDT
Civil Twilight 6:40 AM EDT 8:23 PM EDT
Nautical Twilight 6:09 AM EDT 8:53 PM EDT
Astronomical Twilight 5:38 AM EDT 9:24 PM EDT
Moon 2:32 PM EDT 12:15 AM EDT
Length Of Visible Light 13h 42m
Length of Day
12h 51m
Tomorrow will be 2m 5s shorter.
First Quarter, 54% of the Moon is Illuminated
Hodie
First Quarter
Sep 8
Full
Sep 15
Last Quarter
Sep 24
New
Oct 1
First Quarter

Today's Extremes

State Highs State Lows

Community

WunderPhotos

Upload Photos

1,749,743 photos uploaded!

WunderBlogs® & News

By Dr. Jeff Masters
Director of Meteorology, Weather Underground
By Kari Strenfel
Meteorologist, Weather Underground
By Christopher C. Burt
Weather Historian, Weather Underground
September 2, 2014
September 2, 2014
September 2, 2014

Nearby

Air Quality

  Air Quality AQ Index Pollutant
Yesterday Good
PM2.5
Yesterday Good
OZONE
Current Good
OZONE
Current Good
PM2.5
Die Martis Good
OZONE

Snow Depth

Station Depth Elevation
No new snow has been reported.

Earthquake Activity

City Distance Mag. Time & Date
No recent earthquake activity has been reported nearby.
Minimum magnitude displayed is 2.5.

Coastal Water Temperatures

Locus Calor
No Stations Reporting

Nearby Weather Stations